Terminal Aerodrome Forecast
Issued by NWS Wilmington, OH

Current Version | Previous Version | Graphics & Text | Print | Product List | Glossary On
Versions: 1 2 3 4 5 6 7 8 9 10 11 12 13 14 15 16 17 18 19 20 21
000
FTUS41 KILN 271643 AAB
TAFCMH
TAF AMD
KCMH 271643Z 2717/2812 07004KT P6SM VCSH SCT035 BKN100
      TEMPO 2717/2719 5SM -RA BKN025
     FM272200 06004KT P6SM FEW040 BKN120
     FM280500 05003KT 5SM BR FEW040 SCT250=

USA.gov is the U.S. government's official web portal to all federal, state and local government web resources and services.